Time;durP1;ratioP1;P1;durP2;ratioP2;P2;SDS_P1;SDS_P2;PMS_P1;PMS_P2;Temp;Humidity;BMP_temperature;BMP_pressure;BME280_temperature;BME280_humidity;BME280_pressure;Samples;Min_cycle;Max_cycle;Signal;HPM_P1;HPM_P2
2023/11/08 00:00:53;;;;;;;;;;;;;;;26.93;22.05;97878.47;5052097;28;20015;-94
2023/11/08 00:03:19;;;;;;;;;;;;;;;27.12;22.03;97885.00;5049650;28;19920;-94
2023/11/08 00:05:45;;;;;;;;;;;;;;;26.87;22.18;97874.63;5051524;28;19920;-94
2023/11/08 00:08:11;;;;;;;;;;;;;;;26.84;22.25;97884.00;5051840;28;19982;-94
2023/11/08 00:10:37;;;;;;;;;;;;;;;26.83;22.43;97878.84;5045603;28;20274;-95
2023/11/08 00:13:03;;;;;;;;;;;;;;;26.96;22.15;97880.34;5050580;28;19920;-94
2023/11/08 00:15:29;;;;;;;;;;;;;;;27.00;21.98;97878.16;5050715;28;20009;-93
2023/11/08 00:17:55;;;;;;;;;;;;;;;27.20;22.11;97872.19;5053308;28;19921;-95
2023/11/08 00:20:21;;;;;;;;;;;;;;;27.44;21.80;97870.50;5048717;28;19967;-94
2023/11/08 00:22:47;;;;;;;;;;;;;;;27.54;21.89;97871.34;5047927;28;20452;-94
2023/11/08 00:25:13;;;;;;;;;;;;;;;27.58;21.62;97869.16;5052462;28;19964;-94
2023/11/08 00:27:39;;;;;;;;;;;;;;;27.62;21.55;97879.06;5052455;28;20011;-95
2023/11/08 00:30:05;;;;;;;;;;;;;;;27.76;21.38;97872.84;5047297;28;19917;-94
2023/11/08 00:32:32;;;;;;;;;;;;;;;27.89;21.16;97884.03;5041165;28;20306;-94
2023/11/08 00:34:58;;;;;;;;;;;;;;;27.96;21.04;97889.38;5050595;28;19928;-95
2023/11/08 00:37:24;;;;;;;;;;;;;;;27.88;21.32;97876.81;5048490;28;19917;-94
2023/11/08 00:39:51;;;;;;;;;;;;;;;27.82;21.53;97884.31;5044634;28;19921;-95
2023/11/08 00:42:17;;;;;;;;;;;;;;;27.69;21.52;97886.44;5048327;28;19924;-94
2023/11/08 00:44:43;;;;;;;;;;;;;;;27.69;21.77;97880.81;5044457;28;20023;-95
2023/11/08 00:47:09;;;;;;;;;;;;;;;27.51;21.91;97877.91;5048884;28;20428;-94
2023/11/08 00:49:35;;;;;;;;;;;;;;;27.42;21.87;97868.13;5051820;28;19994;-95
2023/11/08 00:52:01;;;;;;;;;;;;;;;27.57;21.62;97871.19;5052419;28;19921;-94
2023/11/08 00:54:27;;;;;;;;;;;;;;;27.19;21.53;97873.47;5051834;28;19917;-95
2023/11/08 00:56:53;;;;;;;;;;;;;;;26.73;22.32;97869.50;5051398;28;19921;-94
2023/11/08 00:59:19;;;;;;;;;;;;;;;26.70;22.30;97859.91;5051464;28;19921;-95
2023/11/08 01:01:47;;;;;;;;;;;;;;;27.17;22.00;97864.66;5049510;28;20022;-94
2023/11/08 01:04:13;;;;;;;;;;;;;;;27.33;21.74;97853.97;5051666;28;19920;-94
2023/11/08 01:06:39;;;;;;;;;;;;;;;27.33;22.14;97853.16;5051342;28;20030;-95
2023/11/08 01:09:07;;;;;;;;;;;;;;;27.47;22.05;97855.47;5051354;28;19920;-95
2023/11/08 01:11:33;;;;;;;;;;;;;;;27.58;21.96;97855.84;5046079;28;20020;-95
2023/11/08 01:14:01;;;;;;;;;;;;;;;27.75;21.56;97853.56;5046869;28;20290;-95
2023/11/08 01:16:28;;;;;;;;;;;;;;;27.58;22.12;97852.22;5051734;28;19920;-95
2023/11/08 01:18:56;;;;;;;;;;;;;;;27.54;22.27;97846.72;5052230;28;19921;-92
2023/11/08 01:21:23;;;;;;;;;;;;;;;27.32;22.47;97845.97;5044425;28;19921;-93
2023/11/08 01:23:51;;;;;;;;;;;;;;;27.52;22.64;97837.16;5041904;28;20301;-94
2023/11/08 01:26:17;;;;;;;;;;;;;;;27.75;22.07;97837.41;5044893;28;19968;-94
2023/11/08 01:28:45;;;;;;;;;;;;;;;27.80;21.83;97836.00;5055548;28;19927;-94
2023/11/08 01:31:11;;;;;;;;;;;;;;;27.16;22.77;97823.66;5052784;28;19960;-94
2023/11/08 01:33:37;;;;;;;;;;;;;;;26.87;22.81;97825.94;5054081;28;19936;-95
2023/11/08 01:36:04;;;;;;;;;;;;;;;26.83;23.02;97823.28;5052650;28;19927;-95
2023/11/08 01:38:30;;;;;;;;;;;;;;;26.80;23.45;97826.22;5049683;28;19920;-95
2023/11/08 01:40:56;;;;;;;;;;;;;;;27.17;22.93;97811.91;5053440;28;19920;-95
2023/11/08 01:43:28;;;;;;;;;;;;;;;27.39;22.52;97814.72;5051465;28;20377;-95
2023/11/08 01:46:06;;;;;;;;;;;;;;;27.72;22.47;97818.59;5053670;28;19921;-95
2023/11/08 01:48:33;;;;;;;;;;;;;;;28.06;21.92;97812.75;5052314;28;19947;-95
2023/11/08 01:50:59;;;;;;;;;;;;;;;28.29;21.81;97813.41;5051621;28;19921;-95
2023/11/08 01:53:28;;;;;;;;;;;;;;;28.36;21.67;97811.06;5052611;28;20349;-95
2023/11/08 01:55:55;;;;;;;;;;;;;;;28.40;21.55;97813.75;5053937;28;19921;-95
2023/11/08 01:58:21;;;;;;;;;;;;;;;28.37;21.76;97809.81;5052609;28;19917;-95
2023/11/08 02:00:49;;;;;;;;;;;;;;;28.42;21.65;97814.84;5051903;28;19990;-95
2023/11/08 02:03:17;;;;;;;;;;;;;;;28.48;21.25;97817.81;5050942;28;19970;-95
2023/11/08 02:05:43;;;;;;;;;;;;;;;28.43;21.43;97826.91;5053131;28;19920;-94
2023/11/08 02:08:09;;;;;;;;;;;;;;;27.82;21.77;97817.38;5046651;28;20010;-95
2023/11/08 02:10:36;;;;;;;;;;;;;;;27.84;22.10;97817.69;5049597;28;20265;-94
2023/11/08 02:13:03;;;;;;;;;;;;;;;27.65;22.04;97816.06;5054978;28;19921;-94
2023/11/08 02:15:42;;;;;;;;;;;;;;;26.83;23.50;97820.47;5054176;28;19967;-95
2023/11/08 02:18:10;;;;;;;;;;;;;;;26.70;23.18;97812.03;5050960;28;20020;-95
2023/11/08 02:20:36;;;;;;;;;;;;;;;26.86;23.40;97819.56;5048130;28;20401;-94
2023/11/08 02:23:02;;;;;;;;;;;;;;;27.26;22.73;97814.75;5049085;28;19921;-94
2023/11/08 02:25:31;;;;;;;;;;;;;;;27.67;22.36;97810.75;5050498;28;20356;-94
2023/11/08 02:27:57;;;;;;;;;;;;;;;27.58;22.47;97812.75;5052779;28;19928;-95
2023/11/08 02:30:23;;;;;;;;;;;;;;;27.83;22.26;97810.47;5052530;28;19962;-95
2023/11/08 02:32:49;;;;;;;;;;;;;;;28.02;21.75;97817.78;5052455;28;20409;-95
2023/11/08 02:35:16;;;;;;;;;;;;;;;28.15;21.71;97822.47;5052513;28;20019;-95
2023/11/08 02:37:43;;;;;;;;;;;;;;;28.03;21.82;97827.81;5051857;28;19921;-95
2023/11/08 02:40:10;;;;;;;;;;;;;;;27.73;22.09;97825.81;5047647;28;19921;-94
2023/11/08 02:42:43;;;;;;;;;;;;;;;27.87;22.26;97830.06;5046181;28;20015;-94
2023/11/08 02:45:09;;;;;;;;;;;;;;;28.12;21.82;97829.88;5049238;28;20016;-95
2023/11/08 02:47:36;;;;;;;;;;;;;;;27.61;21.85;97823.88;5051412;28;19928;-95
2023/11/08 02:50:02;;;;;;;;;;;;;;;27.11;22.73;97824.22;5055000;28;19973;-94
2023/11/08 02:52:29;;;;;;;;;;;;;;;27.55;22.25;97830.59;5049876;28;19932;-94
2023/11/08 02:54:56;;;;;;;;;;;;;;;27.94;22.09;97832.59;5053577;28;20263;-94
2023/11/08 02:57:22;;;;;;;;;;;;;;;28.12;21.68;97834.72;5048773;28;20386;-95
2023/11/08 02:59:49;;;;;;;;;;;;;;;28.21;21.74;97829.09;5046167;28;19932;-94
2023/11/08 03:02:15;;;;;;;;;;;;;;;28.33;21.69;97826.16;5053975;28;20263;-95
2023/11/08 03:04:41;;;;;;;;;;;;;;;28.26;21.46;97828.47;5050470;28;19933;-93
2023/11/08 03:07:07;;;;;;;;;;;;;;;28.32;21.50;97824.56;5051394;28;20271;-95
2023/11/08 03:09:34;;;;;;;;;;;;;;;28.41;21.45;97830.22;5046775;28;19971;-95
2023/11/08 03:12:00;;;;;;;;;;;;;;;28.42;21.04;97828.19;5051828;28;19921;-95
2023/11/08 03:14:26;;;;;;;;;;;;;;;27.89;21.81;97834.00;5051227;28;19932;-95
2023/11/08 03:16:53;;;;;;;;;;;;;;;27.58;22.35;97833.28;5045617;28;19943;-95
2023/11/08 03:19:21;;;;;;;;;;;;;;;27.86;22.00;97834.97;5049440;28;19925;-95
2023/11/08 03:21:48;;;;;;;;;;;;;;;27.67;21.97;97826.88;5054939;28;19917;-95
2023/11/08 03:24:14;;;;;;;;;;;;;;;27.24;22.69;97833.38;5051578;28;19920;-94
2023/11/08 03:26:41;;;;;;;;;;;;;;;27.15;22.80;97834.13;5051723;28;19921;-94
2023/11/08 03:29:07;;;;;;;;;;;;;;;27.47;22.67;97838.53;5049408;28;20058;-95
2023/11/08 03:31:33;;;;;;;;;;;;;;;27.65;22.46;97837.84;5053309;28;19928;-94
2023/11/08 03:33:59;;;;;;;;;;;;;;;27.91;22.29;97834.31;5054373;28;19925;-95
2023/11/08 03:36:26;;;;;;;;;;;;;;;28.16;21.69;97832.53;5046130;28;19979;-95
2023/11/08 03:38:52;;;;;;;;;;;;;;;28.36;21.48;97838.50;5053796;28;20271;-94
2023/11/08 03:41:18;;;;;;;;;;;;;;;28.26;21.83;97834.13;5051069;28;20023;-95
2023/11/08 03:43:44;;;;;;;;;;;;;;;28.13;21.86;97836.28;5049668;28;20078;-95
2023/11/08 03:46:10;;;;;;;;;;;;;;;28.22;22.09;97825.00;5046130;28;19921;-94
2023/11/08 03:48:37;;;;;;;;;;;;;;;28.41;21.75;97829.41;5050486;28;19952;-95
2023/11/08 03:51:03;;;;;;;;;;;;;;;28.46;21.74;97831.63;5048904;28;20630;-94
2023/11/08 03:53:30;;;;;;;;;;;;;;;28.23;22.11;97824.56;5051115;28;20063;-95
2023/11/08 03:55:56;;;;;;;;;;;;;;;28.27;21.77;97815.91;5052247;28;19921;-95
2023/11/08 03:58:22;;;;;;;;;;;;;;;28.03;22.06;97818.53;5050765;28;20452;-94
2023/11/08 04:00:48;;;;;;;;;;;;;;;27.52;22.46;97818.19;5038387;28;19921;-95
2023/11/08 04:03:14;;;;;;;;;;;;;;;27.30;22.70;97806.19;5049217;28;19920;-95
2023/11/08 04:05:40;;;;;;;;;;;;;;;27.28;22.91;97811.50;5050551;28;20333;-95
2023/11/08 04:08:07;;;;;;;;;;;;;;;27.54;22.98;97824.16;5051565;28;20451;-95
2023/11/08 04:10:33;;;;;;;;;;;;;;;28.02;22.32;97829.06;5049184;28;20274;-95
2023/11/08 04:12:59;;;;;;;;;;;;;;;28.20;21.86;97833.94;5051441;28;19928;-94
2023/11/08 04:15:25;;;;;;;;;;;;;;;28.12;21.83;97826.25;5052317;28;19928;-95
2023/11/08 04:17:51;;;;;;;;;;;;;;;27.71;22.31;97835.97;5053179;28;19917;-95
2023/11/08 04:20:17;;;;;;;;;;;;;;;27.31;22.79;97833.91;5045009;28;20432;-95
2023/11/08 04:22:43;;;;;;;;;;;;;;;27.61;22.34;97828.75;5035738;28;19929;-95
2023/11/08 04:25:11;;;;;;;;;;;;;;;27.93;21.98;97831.84;5049428;28;19958;-94
2023/11/08 04:27:37;;;;;;;;;;;;;;;28.19;21.74;97842.91;5047208;28;19967;-95
2023/11/08 04:30:03;;;;;;;;;;;;;;;28.14;21.99;97841.47;5052194;28;19917;-95
2023/11/08 04:32:29;;;;;;;;;;;;;;;28.11;21.95;97838.78;5051304;28;19927;-95
2023/11/08 04:34:55;;;;;;;;;;;;;;;28.03;22.38;97841.91;5051529;28;19921;-95
2023/11/08 04:37:21;;;;;;;;;;;;;;;28.02;22.25;97850.84;5048992;28;19917;-95
2023/11/08 04:39:50;;;;;;;;;;;;;;;27.95;22.36;97843.44;5048795;28;19929;-95
2023/11/08 04:42:16;;;;;;;;;;;;;;;27.87;22.54;97836.50;5051273;28;20016;-95
2023/11/08 04:44:46;;;;;;;;;;;;;;;28.03;22.26;97839.09;5050034;28;19939;-94
2023/11/08 04:47:17;;;;;;;;;;;;;;;28.17;22.28;97843.34;5048973;28;19929;-94
2023/11/08 04:49:48;;;;;;;;;;;;;;;28.41;22.28;97852.00;5050337;28;19917;-93
2023/11/08 04:52:14;;;;;;;;;;;;;;;28.57;21.83;97846.84;5061274;28;20051;-93
2023/11/08 04:54:40;;;;;;;;;;;;;;;28.66;21.61;97846.88;5059265;28;19940;-93
2023/11/08 04:57:06;;;;;;;;;;;;;;;28.73;21.52;97854.25;5053364;28;20293;-94
2023/11/08 04:59:32;;;;;;;;;;;;;;;28.76;21.55;97858.97;5051493;28;19920;-95
2023/11/08 05:01:59;;;;;;;;;;;;;;;28.76;21.58;97856.16;5047251;28;19963;-95
2023/11/08 05:04:25;;;;;;;;;;;;;;;28.79;21.53;97851.59;5046109;28;20000;-95
2023/11/08 05:06:51;;;;;;;;;;;;;;;28.83;21.28;97853.00;5048727;28;19966;-95
2023/11/08 05:09:19;;;;;;;;;;;;;;;28.46;21.98;97859.88;5050134;28;19921;-95
2023/11/08 05:11:45;;;;;;;;;;;;;;;28.13;22.36;97865.31;5054750;28;19924;-95
2023/11/08 05:14:11;;;;;;;;;;;;;;;28.03;22.61;97866.53;5053775;28;19925;-95
2023/11/08 05:16:37;;;;;;;;;;;;;;;28.12;22.56;97869.41;5053494;28;20402;-92
2023/11/08 05:19:05;;;;;;;;;;;;;;;28.25;22.30;97866.44;5046232;28;19948;-91
2023/11/08 05:21:31;;;;;;;;;;;;;;;28.30;22.34;97858.13;5054611;28;20301;-93
2023/11/08 05:23:57;;;;;;;;;;;;;;;28.40;22.11;97868.16;5051152;28;19921;-92
2023/11/08 05:26:23;;;;;;;;;;;;;;;28.62;22.01;97865.25;5050870;28;19921;-93
2023/11/08 05:28:49;;;;;;;;;;;;;;;28.72;22.03;97867.63;5054503;28;19928;-93
2023/11/08 05:31:15;;;;;;;;;;;;;;;28.78;21.64;97879.06;5052199;28;20290;-91
2023/11/08 05:33:41;;;;;;;;;;;;;;;28.79;21.68;97872.16;5042127;28;19928;-93
2023/11/08 05:36:07;;;;;;;;;;;;;;;28.83;21.74;97884.09;5041909;28;20382;-92
2023/11/08 05:38:33;;;;;;;;;;;;;;;28.88;21.52;97874.97;5050172;28;19921;-91
2023/11/08 05:40:59;;;;;;;;;;;;;;;28.90;21.44;97880.16;5042942;28;19948;-91
2023/11/08 05:43:25;;;;;;;;;;;;;;;28.73;21.84;97891.00;5052466;28;19928;-92
2023/11/08 05:45:55;;;;;;;;;;;;;;;28.53;21.85;97893.47;5047517;28;19956;-95
2023/11/08 05:48:22;;;;;;;;;;;;;;;28.30;22.10;97885.59;5050458;28;19921;-91
2023/11/08 05:50:48;;;;;;;;;;;;;;;28.32;22.16;97892.34;5050429;28;19920;-91
2023/11/08 05:53:14;;;;;;;;;;;;;;;28.46;22.00;97897.38;5047069;28;19928;-91
2023/11/08 05:55:41;;;;;;;;;;;;;;;28.30;22.28;97889.19;5050273;28;19921;-93
2023/11/08 05:58:07;;;;;;;;;;;;;;;28.25;22.25;97898.28;5049403;28;20007;-93
2023/11/08 06:00:34;;;;;;;;;;;;;;;28.33;22.30;97898.78;5043078;28;19974;-93
2023/11/08 06:03:00;;;;;;;;;;;;;;;28.46;22.39;97899.41;5035922;28;19922;-93
2023/11/08 06:05:29;;;;;;;;;;;;;;;28.31;22.17;97909.75;5035962;28;20294;-94
2023/11/08 06:07:56;;;;;;;;;;;;;;;28.31;22.58;97904.09;5046993;28;20008;-94
2023/11/08 06:10:22;;;;;;;;;;;;;;;28.22;22.39;97910.50;5055612;28;19928;-93
2023/11/08 06:12:48;;;;;;;;;;;;;;;28.30;22.45;97908.97;5041010;28;19936;-94
2023/11/08 06:15:16;;;;;;;;;;;;;;;28.47;22.25;97913.06;5052829;28;20428;-94
2023/11/08 06:17:42;;;;;;;;;;;;;;;28.39;22.43;97923.09;5054863;28;19924;-93
2023/11/08 06:20:11;;;;;;;;;;;;;;;28.40;22.46;97930.31;5055438;28;19940;-93
2023/11/08 06:22:37;;;;;;;;;;;;;;;28.24;22.49;97927.75;5055074;28;19995;-93
2023/11/08 06:25:03;;;;;;;;;;;;;;;27.77;23.20;97930.81;5040618;28;20011;-93
2023/11/08 06:27:29;;;;;;;;;;;;;;;27.80;23.25;97929.13;5035945;28;19917;-94
2023/11/08 06:29:55;;;;;;;;;;;;;;;27.90;23.31;97933.56;5035785;28;20015;-94
2023/11/08 06:32:21;;;;;;;;;;;;;;;28.11;23.07;97931.94;5036293;28;19917;-93
2023/11/08 06:34:47;;;;;;;;;;;;;;;28.34;22.78;97931.41;5042205;28;19921;-93
2023/11/08 06:37:13;;;;;;;;;;;;;;;28.43;22.87;97943.50;5040969;28;19917;-93
2023/11/08 06:39:40;;;;;;;;;;;;;;;28.62;22.62;97947.19;5051466;28;20333;-93
2023/11/08 06:42:07;;;;;;;;;;;;;;;28.64;22.71;97953.94;5049877;28;19916;-94
2023/11/08 06:44:33;;;;;;;;;;;;;;;28.34;23.23;97948.34;5043766;28;19975;-93
2023/11/08 06:46:59;;;;;;;;;;;;;;;28.29;23.02;97944.09;5049239;28;19948;-93
2023/11/08 06:49:25;;;;;;;;;;;;;;;28.26;23.26;97947.06;5051037;28;20317;-94
2023/11/08 06:51:51;;;;;;;;;;;;;;;28.40;23.11;97940.84;5051839;28;20317;-94
2023/11/08 06:54:17;;;;;;;;;;;;;;;28.38;23.29;97952.59;5034683;28;19925;-94
2023/11/08 06:56:43;;;;;;;;;;;;;;;28.27;23.53;97952.25;5048163;28;20302;-93
2023/11/08 06:59:09;;;;;;;;;;;;;;;28.39;23.31;97957.00;5040545;28;19921;-93
2023/11/08 07:01:37;;;;;;;;;;;;;;;28.21;23.49;97965.41;5035235;28;19920;-94
2023/11/08 07:04:04;;;;;;;;;;;;;;;27.60;24.19;97966.16;5036369;28;20278;-94
2023/11/08 07:06:31;;;;;;;;;;;;;;;26.59;25.63;97971.38;5050715;28;19921;-94
2023/11/08 07:08:57;;;;;;;;;;;;;;;26.88;25.48;97971.22;5055033;28;20390;-93
2023/11/08 07:11:24;;;;;;;;;;;;;;;27.19;24.95;97974.94;5054934;28;19943;-94
2023/11/08 07:13:50;;;;;;;;;;;;;;;27.15;25.12;97977.09;5039845;28;19928;-93
2023/11/08 07:16:18;;;;;;;;;;;;;;;27.57;24.92;97972.72;5049839;28;20405;-94
2023/11/08 07:18:44;;;;;;;;;;;;;;;27.97;24.20;97975.63;5053031;28;19917;-93
2023/11/08 07:21:20;;;;;;;;;;;;;;;28.27;23.97;97985.34;5054786;28;19921;-93
2023/11/08 07:23:46;;;;;;;;;;;;;;;28.20;23.86;97979.97;5052785;28;19921;-93
2023/11/08 07:26:14;;;;;;;;;;;;;;;28.00;24.28;97986.81;5041550;28;19921;-93
2023/11/08 07:28:43;;;;;;;;;;;;;;;27.24;25.27;97992.03;5055200;28;20274;-93
2023/11/08 07:31:09;;;;;;;;;;;;;;;27.32;25.28;97987.72;5054033;28;19917;-94
2023/11/08 07:33:36;;;;;;;;;;;;;;;27.29;25.33;97993.50;5053096;28;20397;-94
2023/11/08 07:36:03;;;;;;;;;;;;;;;26.85;25.65;97995.47;5035209;28;20008;-94
2023/11/08 07:38:29;;;;;;;;;;;;;;;25.85;26.95;97999.88;5034541;28;19917;-93
2023/11/08 07:40:55;;;;;;;;;;;;;;;25.27;27.96;97999.13;5039986;28;19917;-94
2023/11/08 07:43:22;;;;;;;;;;;;;;;24.97;28.34;98005.16;5055022;28;19916;-93
2023/11/08 07:45:48;;;;;;;;;;;;;;;25.15;28.25;98011.09;5044289;28;19925;-94
2023/11/08 07:48:14;;;;;;;;;;;;;;;25.40;27.75;98002.78;5049832;28;19994;-94
2023/11/08 07:50:41;;;;;;;;;;;;;;;25.44;27.74;98013.94;5054856;28;19917;-94
2023/11/08 07:53:07;;;;;;;;;;;;;;;25.66;27.77;98006.47;5053866;28;19987;-94
2023/11/08 07:55:33;;;;;;;;;;;;;;;26.02;26.87;98011.81;5052342;28;19948;-94
2023/11/08 07:58:00;;;;;;;;;;;;;;;26.35;26.90;98007.56;5054088;28;20366;-94
2023/11/08 08:00:26;;;;;;;;;;;;;;;25.47;27.86;98015.06;5041980;28;19920;-94
2023/11/08 08:02:53;;;;;;;;;;;;;;;25.87;27.63;98021.91;5046777;28;20370;-94
2023/11/08 08:05:19;;;;;;;;;;;;;;;25.87;27.71;98014.28;5047442;28;19925;-94
2023/11/08 08:07:45;;;;;;;;;;;;;;;26.13;27.18;98012.31;5033921;28;19963;-94
2023/11/08 08:10:14;;;;;;;;;;;;;;;26.37;27.03;98024.78;5038905;28;19921;-94
2023/11/08 08:12:40;;;;;;;;;;;;;;;26.05;26.95;98022.94;5053511;28;19925;-93
2023/11/08 08:15:07;;;;;;;;;;;;;;;25.27;27.94;98020.81;5053788;28;19924;-94
2023/11/08 08:17:36;;;;;;;;;;;;;;;26.07;26.92;98023.28;5034496;28;20023;-94
2023/11/08 08:20:04;;;;;;;;;;;;;;;24.93;28.28;98018.50;5044258;28;19917;-94
2023/11/08 08:22:30;;;;;;;;;;;;;;;25.37;27.64;98026.13;5053113;28;20401;-93
2023/11/08 08:24:57;;;;;;;;;;;;;;;24.75;28.52;98020.97;5044288;28;19917;-94
2023/11/08 08:27:24;;;;;;;;;;;;;;;25.09;28.05;98026.91;5036169;28;19972;-93
2023/11/08 08:29:50;;;;;;;;;;;;;;;24.08;29.75;98031.03;5041296;28;19986;-93
2023/11/08 08:32:16;;;;;;;;;;;;;;;24.56;29.42;98033.09;5055727;28;19931;-94
2023/11/08 08:34:42;;;;;;;;;;;;;;;25.44;27.63;98030.78;5052325;28;20285;-94
2023/11/08 08:37:08;;;;;;;;;;;;;;;25.79;26.98;98045.88;5034904;28;19921;-94
2023/11/08 08:39:34;;;;;;;;;;;;;;;25.37;27.83;98050.63;5033591;28;20626;-93
2023/11/08 08:42:01;;;;;;;;;;;;;;;25.09;28.23;98043.78;5033870;28;19917;-94
2023/11/08 08:44:27;;;;;;;;;;;;;;;25.34;28.01;98043.13;5033271;28;19933;-95
2023/11/08 08:46:54;;;;;;;;;;;;;;;24.95;28.36;98051.81;5034609;28;19922;-93
2023/11/08 08:49:20;;;;;;;;;;;;;;;24.99;28.24;98052.50;5042085;28;19956;-95
2023/11/08 08:51:46;;;;;;;;;;;;;;;23.43;30.83;98054.41;5052999;28;20011;-93
2023/11/08 08:54:12;;;;;;;;;;;;;;;24.51;29.14;98059.66;5048469;28;19971;-94
2023/11/08 08:56:39;;;;;;;;;;;;;;;24.61;28.95;98064.25;5052828;28;19932;-94
2023/11/08 08:59:05;;;;;;;;;;;;;;;24.35;28.76;98059.66;5040683;28;19970;-94
2023/11/08 09:01:31;;;;;;;;;;;;;;;24.14;29.82;98051.72;5053730;28;19917;-93
2023/11/08 09:03:57;;;;;;;;;;;;;;;25.05;28.10;98059.13;5045110;28;19928;-92
2023/11/08 09:06:23;;;;;;;;;;;;;;;25.30;27.91;98070.50;5040925;28;19922;-93
2023/11/08 09:08:49;;;;;;;;;;;;;;;25.89;27.15;98070.06;5052562;28;19925;-94
2023/11/08 09:11:15;;;;;;;;;;;;;;;25.42;27.49;98056.53;5052958;28;19925;-93
2023/11/08 09:13:41;;;;;;;;;;;;;;;26.19;26.69;98060.34;5043397;28;19956;-93
2023/11/08 09:16:09;;;;;;;;;;;;;;;26.69;26.09;98054.72;5048866;28;19921;-93
2023/11/08 09:18:35;;;;;;;;;;;;;;;25.81;27.32;98057.47;5051339;28;19968;-94
2023/11/08 09:21:01;;;;;;;;;;;;;;;25.88;26.81;98065.69;5053171;28;19917;-94
2023/11/08 09:23:28;;;;;;;;;;;;;;;26.61;26.03;98057.00;5042892;28;19921;-94
2023/11/08 09:25:54;;;;;;;;;;;;;;;26.88;25.87;98059.34;5033361;28;19923;-93
2023/11/08 09:28:21;;;;;;;;;;;;;;;27.11;25.12;98053.31;5033002;28;19932;-93
2023/11/08 09:30:47;;;;;;;;;;;;;;;27.23;24.95;98055.31;5044386;28;19928;-93
2023/11/08 09:33:13;;;;;;;;;;;;;;;27.35;25.34;98057.28;5047377;28;20267;-93
2023/11/08 09:35:39;;;;;;;;;;;;;;;27.06;24.94;98053.09;5051838;28;20398;-94
2023/11/08 09:38:05;;;;;;;;;;;;;;;26.82;25.35;98061.16;5052021;28;20298;-93
2023/11/08 09:40:31;;;;;;;;;;;;;;;27.02;25.24;98053.25;5052808;28;20424;-93
2023/11/08 09:42:58;;;;;;;;;;;;;;;27.09;25.37;98058.63;5041068;28;20281;-93
2023/11/08 09:45:30;;;;;;;;;;;;;;;26.79;25.27;98052.84;5051640;28;20058;-92
2023/11/08 09:47:56;;;;;;;;;;;;;;;27.02;25.09;98049.63;5042486;28;20400;-93
2023/11/08 09:50:23;;;;;;;;;;;;;;;27.66;25.00;98057.41;5036330;28;19913;-93
2023/11/08 09:52:50;;;;;;;;;;;;;;;27.33;25.11;98045.69;5053448;28;19925;-93
2023/11/08 09:55:17;;;;;;;;;;;;;;;26.91;25.35;98047.16;5054409;28;20007;-92
2023/11/08 09:57:44;;;;;;;;;;;;;;;27.01;25.33;98048.84;5052945;28;19921;-93
2023/11/08 10:00:10;;;;;;;;;;;;;;;26.83;25.88;98054.28;5043889;28;19921;-92
2023/11/08 10:02:37;;;;;;;;;;;;;;;26.81;25.53;98053.97;5040733;28;19971;-94
2023/11/08 10:05:04;;;;;;;;;;;;;;;27.64;25.47;98053.47;5047999;28;19921;-92
2023/11/08 10:07:30;;;;;;;;;;;;;;;28.37;24.41;98047.06;5056258;28;19917;-92
2023/11/08 10:09:56;;;;;;;;;;;;;;;27.54;25.06;98046.97;5055420;28;19921;-92
2023/11/08 10:12:22;;;;;;;;;;;;;;;27.44;25.08;98045.34;5054315;28;19920;-92
2023/11/08 10:14:56;;;;;;;;;;;;;;;28.06;24.68;98046.25;5054142;28;20282;-91
2023/11/08 10:17:33;;;;;;;;;;;;;;;28.23;24.26;98035.53;5052823;28;20346;-92
2023/11/08 10:19:59;;;;;;;;;;;;;;;28.68;24.59;98038.56;5056134;28;19921;-91
2023/11/08 10:22:25;;;;;;;;;;;;;;;28.57;23.95;98038.16;5055444;28;19936;-93
2023/11/08 10:24:54;;;;;;;;;;;;;;;28.45;24.45;98030.63;5055117;28;20023;-92
2023/11/08 10:27:20;;;;;;;;;;;;;;;29.07;24.79;98040.53;5036110;28;19936;-92
2023/11/08 10:29:47;;;;;;;;;;;;;;;29.23;23.73;98034.59;5036309;28;19918;-92
2023/11/08 10:32:24;;;;;;;;;;;;;;;28.75;23.30;98035.44;5051409;28;20606;-92
2023/11/08 10:34:51;;;;;;;;;;;;;;;28.90;22.99;98033.59;5035642;28;20008;-92
2023/11/08 10:37:27;;;;;;;;;;;;;;;27.81;24.88;98035.91;5035304;28;19928;-92
2023/11/08 10:39:54;;;;;;;;;;;;;;;26.67;25.37;98029.84;5036032;28;19917;-92
2023/11/08 10:42:21;;;;;;;;;;;;;;;26.37;25.84;98024.78;5038080;28;20460;-93
2023/11/08 10:44:47;;;;;;;;;;;;;;;26.83;24.98;98034.56;5055676;28;19925;-93
2023/11/08 10:47:15;;;;;;;;;;;;;;;26.13;25.76;98028.38;5051861;28;19920;-92
2023/11/08 10:49:46;;;;;;;;;;;;;;;26.29;25.50;98031.88;5036897;28;19917;-93
2023/11/08 10:52:12;;;;;;;;;;;;;;;25.37;26.80;98026.13;5036214;28;20003;-94
2023/11/08 10:54:39;;;;;;;;;;;;;;;26.50;25.48;98027.59;5035828;28;20338;-93
2023/11/08 10:57:08;;;;;;;;;;;;;;;27.30;23.84;98024.06;5041351;28;19920;-93
2023/11/08 10:59:35;;;;;;;;;;;;;;;27.80;23.91;98020.22;5052294;28;19921;-92
2023/11/08 11:02:21;;;;;;;;;;;;;;;28.08;23.65;98020.41;5054699;28;20441;-93
2023/11/08 11:04:50;;;;;;;;;;;;;;;26.78;24.47;98017.44;5050857;28;20358;-93
2023/11/08 11:07:17;;;;;;;;;;;;;;;27.31;24.45;98017.16;5045691;28;20016;-92
2023/11/08 11:09:43;;;;;;;;;;;;;;;27.27;24.02;98010.06;5051075;28;19923;-93
2023/11/08 11:12:12;;;;;;;;;;;;;;;27.31;24.51;98010.72;5035901;28;20383;-93
2023/11/08 11:14:44;;;;;;;;;;;;;;;28.48;22.69;98007.06;5053124;28;19982;-91
2023/11/08 11:17:10;;;;;;;;;;;;;;;28.71;21.82;97998.84;5040417;28;19917;-92
2023/11/08 11:19:39;;;;;;;;;;;;;;;28.11;22.21;97996.88;5039414;28;19959;-93
2023/11/08 11:22:08;;;;;;;;;;;;;;;28.18;22.51;98005.06;5041639;28;19921;-93
2023/11/08 11:24:39;;;;;;;;;;;;;;;26.93;23.40;97999.63;5036617;28;20023;-93
2023/11/08 11:27:06;;;;;;;;;;;;;;;27.20;22.60;97994.22;5035186;28;19917;-93
2023/11/08 11:29:33;;;;;;;;;;;;;;;26.97;23.81;97989.00;5035184;28;19944;-94
2023/11/08 11:32:03;;;;;;;;;;;;;;;27.99;22.49;97988.06;5035766;28;20012;-93
2023/11/08 11:34:32;;;;;;;;;;;;;;;28.52;21.91;97985.88;5047345;28;19932;-92
2023/11/08 11:37:10;;;;;;;;;;;;;;;28.90;21.61;97981.91;5048440;28;19944;-93
2023/11/08 11:39:38;;;;;;;;;;;;;;;29.26;21.21;97979.94;5044746;28;19921;-93
2023/11/08 11:42:06;;;;;;;;;;;;;;;28.34;22.99;97985.06;5050932;28;19947;-94
2023/11/08 11:44:38;;;;;;;;;;;;;;;26.85;23.57;97987.00;5038910;28;19925;-94
2023/11/08 11:47:07;;;;;;;;;;;;;;;27.09;22.66;97990.19;5049821;28;19925;-91
2023/11/08 11:49:36;;;;;;;;;;;;;;;25.81;25.28;97999.16;5049418;28;20008;-94
2023/11/08 11:52:02;;;;;;;;;;;;;;;24.98;24.63;98003.16;5053393;28;19921;-95
2023/11/08 11:54:28;;;;;;;;;;;;;;;25.79;23.41;97989.63;5053842;28;19921;-94
2023/11/08 11:56:54;;;;;;;;;;;;;;;24.61;25.56;98002.47;5047971;28;20003;-96
2023/11/08 11:59:20;;;;;;;;;;;;;;;25.39;23.97;97995.56;5051985;28;19975;-95
2023/11/08 12:01:47;;;;;;;;;;;;;;;25.97;23.21;98001.91;5053551;28;19916;-93
2023/11/08 12:04:13;;;;;;;;;;;;;;;26.36;22.93;98000.69;5050726;28;20371;-93
2023/11/08 12:06:39;;;;;;;;;;;;;;;26.89;22.41;98003.78;5051414;28;20373;-92
2023/11/08 12:09:10;;;;;;;;;;;;;;;26.64;22.21;97996.16;5045203;28;20382;-92
2023/11/08 12:11:36;;;;;;;;;;;;;;;26.10;22.21;97990.69;5050226;28;20344;-93
2023/11/08 12:14:02;;;;;;;;;;;;;;;25.96;24.32;97991.09;5053262;28;19932;-95
2023/11/08 12:16:29;;;;;;;;;;;;;;;26.45;22.45;97994.38;5049853;28;19928;-93
2023/11/08 12:18:55;;;;;;;;;;;;;;;27.40;21.37;97997.53;5049171;28;20396;-94
2023/11/08 12:21:21;;;;;;;;;;;;;;;28.18;20.83;98000.22;5052053;28;19921;-95
2023/11/08 12:23:49;;;;;;;;;;;;;;;25.83;25.90;98004.38;5054849;28;20041;-96
2023/11/08 12:26:15;;;;;;;;;;;;;;;25.21;23.84;98006.50;5053039;28;19952;-93
2023/11/08 12:28:43;;;;;;;;;;;;;;;26.93;22.25;97998.81;5045745;28;19928;-92
2023/11/08 12:31:11;;;;;;;;;;;;;;;27.35;21.47;98000.91;5051495;28;20340;-92
2023/11/08 12:33:37;;;;;;;;;;;;;;;27.86;21.88;98001.44;5052163;28;19943;-91
2023/11/08 12:36:04;;;;;;;;;;;;;;;27.63;21.38;97993.47;5052596;28;19999;-92
2023/11/08 12:38:34;;;;;;;;;;;;;;;28.14;20.94;97991.09;5050771;28;19928;-91
2023/11/08 12:41:00;;;;;;;;;;;;;;;27.98;20.91;97977.97;5049463;28;19917;-92
2023/11/08 12:43:26;;;;;;;;;;;;;;;28.02;20.80;97989.97;5052094;28;20378;-91
2023/11/08 12:45:59;;;;;;;;;;;;;;;27.15;22.04;97985.53;5050425;28;20341;-90